createdAt,value
2019-04-10T00:00:06.375Z,6.49
2019-04-10T00:01:07.761Z,6.53
2019-04-10T00:02:05.207Z,6.55
2019-04-10T00:03:06.170Z,6.46
2019-04-10T00:04:05.182Z,6.37
2019-04-10T00:05:05.241Z,6.47
2019-04-10T00:06:05.155Z,6.49
2019-04-10T00:07:12.749Z,6.47
2019-04-10T00:08:06.300Z,6.50
2019-04-10T00:09:05.150Z,6.45
2019-04-10T00:10:05.580Z,6.45
2019-04-10T00:11:05.135Z,6.35
2019-04-10T00:12:05.365Z,6.28
2019-04-10T00:13:05.127Z,6.31
2019-04-10T00:14:05.099Z,6.32
2019-04-10T00:15:05.136Z,6.28
2019-04-10T00:16:05.597Z,6.19
2019-04-10T00:17:05.067Z,6.18
2019-04-10T00:18:05.326Z,6.16
2019-04-10T00:19:05.019Z,6.19
2019-04-10T00:20:05.008Z,6.15
2019-04-10T00:21:05.113Z,6.15
2019-04-10T00:22:06.180Z,6.21
2019-04-10T00:23:04.967Z,6.19
2019-04-10T00:24:06.021Z,6.18
2019-04-10T00:25:04.985Z,6.16
2019-04-10T00:26:05.582Z,6.05
2019-04-10T00:27:06.050Z,6.12
2019-04-10T00:28:05.303Z,6.13
2019-04-10T00:29:05.740Z,6.12
2019-04-10T00:30:04.905Z,6.08
2019-04-10T00:31:05.274Z,6.21
2019-04-10T00:32:05.731Z,6.12
2019-04-10T00:33:04.865Z,6.05
2019-04-10T00:34:05.391Z,6.11
2019-04-10T00:35:04.835Z,6.00
2019-04-10T00:36:04.879Z,6.05
2019-04-10T00:37:05.777Z,6.02
2019-04-10T00:38:05.126Z,6.06
2019-04-10T00:39:04.804Z,6.05
2019-04-10T00:40:04.769Z,6.00
2019-04-10T00:41:05.934Z,5.97
2019-04-10T00:42:05.077Z,5.97
2019-04-10T00:43:04.760Z,5.97
2019-04-10T00:44:05.714Z,5.93
2019-04-10T00:45:04.751Z,5.90
2019-04-10T00:46:04.759Z,5.91
2019-04-10T00:47:04.769Z,5.88
2019-04-10T00:48:05.698Z,5.82
2019-04-10T00:49:05.081Z,5.85
2019-04-10T00:50:04.697Z,5.85
2019-04-10T00:51:04.751Z,5.80
2019-04-10T00:52:04.676Z,5.82
2019-04-10T00:53:05.067Z,5.73
2019-04-10T00:54:05.601Z,5.76
2019-04-10T00:55:05.650Z,5.76
2019-04-10T00:56:04.643Z,5.76
2019-04-10T00:57:05.240Z,5.69
2019-04-10T00:58:05.732Z,5.66
2019-04-10T00:59:04.580Z,5.66
2019-04-10T01:00:04.581Z,5.66
2019-04-10T01:01:05.587Z,5.70
2019-04-10T01:02:04.659Z,5.70
2019-04-10T01:03:05.166Z,5.58
2019-04-10T01:04:04.512Z,5.66
2019-04-10T01:05:04.517Z,5.61
2019-04-10T01:06:04.535Z,5.59
2019-04-10T01:07:04.533Z,5.59
2019-04-10T01:08:04.557Z,5.52
2019-04-10T01:09:04.774Z,5.59
2019-04-10T01:10:04.457Z,5.44
2019-04-10T01:11:04.475Z,5.48
2019-04-10T01:12:04.436Z,5.41
2019-04-10T01:13:04.917Z,5.48
2019-04-10T01:14:05.360Z,5.50
2019-04-10T01:15:04.735Z,5.43
2019-04-10T01:16:04.405Z,5.40
2019-04-10T01:17:04.416Z,5.43
2019-04-10T01:18:04.638Z,5.40
2019-04-10T01:19:04.364Z,5.40
2019-04-10T01:20:05.078Z,5.40
2019-04-10T01:21:04.348Z,5.43
2019-04-10T01:22:04.352Z,5.44
2019-04-10T01:23:04.324Z,5.44
2019-04-10T01:24:04.286Z,5.39
2019-04-10T01:25:04.294Z,5.40
2019-04-10T01:26:05.195Z,5.34
2019-04-10T01:27:04.477Z,5.32
2019-04-10T01:28:04.664Z,5.36
2019-04-10T01:29:05.128Z,5.29
2019-04-10T01:30:04.358Z,5.25
2019-04-10T01:31:04.529Z,5.29
2019-04-10T01:32:04.231Z,5.24
2019-04-10T01:33:04.195Z,5.19
2019-04-10T01:34:05.249Z,5.24
2019-04-10T01:35:04.210Z,5.14
2019-04-10T01:36:04.839Z,5.14
2019-04-10T01:37:04.746Z,5.09
2019-04-10T01:38:05.975Z,5.07
2019-04-10T01:39:04.187Z,5.14
2019-04-10T01:40:04.517Z,5.14
2019-04-10T01:41:04.145Z,5.18
2019-04-10T01:42:04.125Z,5.12
2019-04-10T01:43:09.987Z,5.16
2019-04-10T01:44:05.676Z,5.09
2019-04-10T01:45:04.965Z,5.12
2019-04-10T01:46:04.241Z,5.11
2019-04-10T01:47:04.661Z,5.11
2019-04-10T01:48:04.070Z,5.09
2019-04-10T01:49:05.064Z,4.98
2019-04-10T01:50:04.426Z,5.09
2019-04-10T01:51:04.049Z,5.14
2019-04-10T01:52:04.818Z,5.03
2019-04-10T01:53:03.998Z,5.07
2019-04-10T01:54:03.982Z,5.01
2019-04-10T01:55:16.996Z,5.03
2019-04-10T01:56:05.293Z,4.96
2019-04-10T01:57:04.168Z,4.96
2019-04-10T01:58:05.037Z,4.89
2019-04-10T01:59:03.913Z,4.88
2019-04-10T02:00:04.646Z,4.79
2019-04-10T02:01:03.980Z,4.85
2019-04-10T02:02:05.075Z,4.79
2019-04-10T02:03:04.004Z,4.83
2019-04-10T02:04:04.656Z,4.74
2019-04-10T02:05:04.062Z,4.69
2019-04-10T02:06:03.849Z,4.69
2019-04-10T02:07:03.858Z,4.71
2019-04-10T02:08:08.976Z,4.64
2019-04-10T02:09:04.814Z,4.60
2019-04-10T02:10:03.831Z,4.57
2019-04-10T02:11:04.836Z,4.64
2019-04-10T02:12:04.096Z,4.60
2019-04-10T02:13:03.793Z,4.60
2019-04-10T02:14:03.802Z,4.61
2019-04-10T02:15:04.787Z,4.63
2019-04-10T02:16:03.805Z,4.60
2019-04-10T02:17:04.293Z,4.51
2019-04-10T02:18:03.715Z,4.51
2019-04-10T02:19:03.909Z,4.43
2019-04-10T02:20:04.863Z,4.53
2019-04-10T02:21:03.695Z,4.53
2019-04-10T02:22:04.399Z,4.56
2019-04-10T02:23:03.853Z,4.51
2019-04-10T02:24:03.691Z,4.49
2019-04-10T02:25:03.641Z,4.36
2019-04-10T02:26:03.685Z,4.38
2019-04-10T02:27:03.627Z,4.38
2019-04-10T02:28:04.791Z,4.38
2019-04-10T02:29:03.872Z,4.34
2019-04-10T02:30:05.168Z,4.31
2019-04-10T02:31:04.807Z,4.23
2019-04-10T02:32:04.140Z,4.27
2019-04-10T02:33:04.306Z,4.39
2019-04-10T02:34:04.772Z,4.34
2019-04-10T02:35:04.039Z,4.27
2019-04-10T02:36:04.285Z,4.20
2019-04-10T02:37:03.543Z,4.24
2019-04-10T02:38:22.659Z,4.26
2019-04-10T02:39:15.132Z,4.24
2019-04-10T02:40:05.650Z,4.23
2019-04-10T02:41:03.695Z,4.16
2019-04-10T02:42:03.464Z,4.10
2019-04-10T02:43:05.442Z,4.09
2019-04-10T02:44:04.865Z,3.94
2019-04-10T02:45:03.547Z,3.96
2019-04-10T02:46:04.055Z,4.00
2019-04-10T02:47:04.439Z,3.99
2019-04-10T02:48:04.111Z,3.98
2019-04-10T02:49:04.155Z,3.96
2019-04-10T02:50:05.347Z,3.98
2019-04-10T02:51:05.332Z,3.98
2019-04-10T02:52:04.081Z,3.85
2019-04-10T02:53:03.515Z,3.88
2019-04-10T02:54:05.025Z,3.85
2019-04-10T02:55:03.767Z,3.91
2019-04-10T02:56:03.341Z,3.84
2019-04-10T02:57:03.647Z,3.81
2019-04-10T02:58:03.293Z,3.78
2019-04-10T02:59:04.865Z,3.78
2019-04-10T03:01:25.150Z,3.66
2019-04-10T03:02:23.972Z,3.78
2019-04-10T03:03:22.808Z,3.74
2019-04-10T03:04:22.807Z,3.82
2019-04-10T03:05:24.865Z,3.80
2019-04-10T03:06:22.939Z,3.70
2019-04-10T03:07:23.997Z,3.82
2019-04-10T03:08:39.642Z,3.80
2019-04-10T03:09:37.088Z,3.74
2019-04-10T03:10:31.609Z,3.66
2019-04-10T03:11:24.446Z,3.73
2019-04-10T03:12:23.778Z,3.72
2019-04-10T03:13:23.922Z,3.56
2019-04-10T03:14:26.392Z,3.66
2019-04-10T03:15:23.223Z,3.63
2019-04-10T03:16:23.667Z,3.64
2019-04-10T03:17:22.665Z,3.66
2019-04-10T03:18:22.989Z,3.49
2019-04-10T03:19:22.617Z,3.52
2019-04-10T03:20:22.623Z,3.56
2019-04-10T03:21:22.911Z,3.56
2019-04-10T03:22:23.595Z,3.48
2019-04-10T03:23:23.215Z,3.45
2019-04-10T03:24:23.237Z,3.48
2019-04-10T03:25:22.556Z,3.45
2019-04-10T03:26:23.579Z,3.37
2019-04-10T03:27:22.659Z,3.45
2019-04-10T03:28:22.952Z,3.44
2019-04-10T03:29:22.537Z,3.44
2019-04-10T03:30:23.431Z,3.42
2019-04-10T03:31:24.648Z,3.46
2019-04-10T03:32:23.645Z,3.42
2019-04-10T03:33:26.699Z,3.45
2019-04-10T03:34:25.474Z,3.33
2019-04-10T03:35:22.837Z,3.37
2019-04-10T03:36:23.228Z,3.41
2019-04-10T03:37:22.423Z,3.27
2019-04-10T03:38:25.790Z,3.32
2019-04-10T03:39:23.614Z,3.27
2019-04-10T03:40:22.387Z,3.25
2019-04-10T03:41:22.400Z,3.26
2019-04-10T03:42:23.226Z,3.30
2019-04-10T03:43:22.350Z,3.26
2019-04-10T03:44:22.843Z,3.22
2019-04-10T03:45:22.446Z,3.20
2019-04-10T03:46:23.499Z,3.29
2019-04-10T03:47:22.951Z,3.20
2019-04-10T03:48:23.081Z,3.23
2019-04-10T03:49:22.290Z,3.27
2019-04-10T03:50:22.273Z,3.18
2019-04-10T03:51:22.831Z,3.14
2019-04-10T03:52:22.273Z,3.04
2019-04-10T03:53:23.214Z,3.07
2019-04-10T03:54:22.912Z,3.05
2019-04-10T03:55:23.191Z,3.11
2019-04-10T03:56:23.388Z,3.11
2019-04-10T03:57:22.632Z,3.15
2019-04-10T03:58:23.128Z,3.02
2019-04-10T03:59:22.425Z,3.08
2019-04-10T04:00:22.453Z,3.15
2019-04-10T04:01:22.995Z,3.09
2019-04-10T04:02:22.206Z,3.02
2019-04-10T04:03:22.134Z,2.96
2019-04-10T04:04:22.154Z,2.97
2019-04-10T04:05:22.434Z,2.97
2019-04-10T04:06:22.167Z,2.94
2019-04-10T04:07:24.599Z,2.94
2019-04-10T04:08:22.100Z,2.93
2019-04-10T04:09:22.068Z,2.97
2019-04-10T04:10:22.047Z,2.90
2019-04-10T04:11:22.110Z,3.00
2019-04-10T04:12:22.804Z,2.96
2019-04-10T04:13:22.035Z,2.96
2019-04-10T04:14:22.114Z,3.02
2019-04-10T04:15:22.008Z,2.93
2019-04-10T04:16:22.679Z,2.93
2019-04-10T04:17:22.242Z,2.82
2019-04-10T04:18:21.980Z,2.87
2019-04-10T04:19:24.687Z,2.81
2019-04-10T04:20:22.969Z,2.78
2019-04-10T04:21:21.933Z,2.72
2019-04-10T04:22:22.918Z,2.69
2019-04-10T04:23:21.935Z,2.72
2019-04-10T04:24:23.547Z,2.72
2019-04-10T04:25:21.967Z,2.68
2019-04-10T04:26:21.852Z,2.69
2019-04-10T04:27:21.887Z,2.68
2019-04-10T04:28:21.843Z,2.79
2019-04-10T04:29:22.649Z,2.71
2019-04-10T04:30:22.418Z,2.82
2019-04-10T04:31:22.817Z,2.68
2019-04-10T04:32:21.841Z,2.65
2019-04-10T04:33:21.819Z,2.75
2019-04-10T04:34:22.862Z,2.63
2019-04-10T04:35:22.262Z,2.63
2019-04-10T04:36:21.759Z,2.68
2019-04-10T04:37:22.861Z,2.68
2019-04-10T04:38:21.752Z,2.68
2019-04-10T04:39:26.826Z,2.57
2019-04-10T04:40:23.574Z,2.63
2019-04-10T04:41:21.718Z,2.65
2019-04-10T04:42:22.349Z,2.65
2019-04-10T04:43:23.027Z,2.58
2019-04-10T04:44:22.188Z,2.61
2019-04-10T04:45:21.652Z,2.60
2019-04-10T04:46:21.622Z,2.55
2019-04-10T04:47:22.331Z,2.68
2019-04-10T04:48:21.983Z,2.55
2019-04-10T04:49:21.592Z,2.47
2019-04-10T04:50:21.594Z,2.60
2019-04-10T04:51:21.967Z,2.53
2019-04-10T04:52:21.581Z,2.50
2019-04-10T04:53:21.620Z,2.48
2019-04-10T04:54:21.540Z,2.47
2019-04-10T04:55:21.829Z,2.50
2019-04-10T04:56:21.959Z,2.50
2019-04-10T04:57:22.578Z,2.53
2019-04-10T04:58:22.279Z,2.51
2019-04-10T04:59:21.502Z,2.48
2019-04-10T05:00:21.582Z,2.45
2019-04-10T05:01:21.493Z,2.50
2019-04-10T05:02:21.953Z,2.48
2019-04-10T05:03:21.462Z,2.55
2019-04-10T05:04:21.445Z,2.53
2019-04-10T05:05:21.467Z,2.53
2019-04-10T05:06:22.292Z,2.50
2019-04-10T05:07:22.395Z,2.48
2019-04-10T05:08:21.761Z,2.42
2019-04-10T05:09:33.084Z,2.51
2019-04-10T05:10:22.912Z,2.53
2019-04-10T05:11:22.321Z,2.53
2019-04-10T05:12:21.403Z,2.55
2019-04-10T05:13:22.242Z,2.48
2019-04-10T05:14:21.684Z,2.48
2019-04-10T05:15:21.639Z,2.50
2019-04-10T05:16:21.336Z,2.47
2019-04-10T05:17:22.183Z,2.53
2019-04-10T05:18:21.330Z,2.53
2019-04-10T05:19:21.284Z,2.51
2019-04-10T05:20:21.319Z,2.53
2019-04-10T05:21:21.439Z,2.48
2019-04-10T05:22:22.308Z,2.53
2019-04-10T05:23:24.393Z,2.47
2019-04-10T05:24:22.010Z,2.54
2019-04-10T05:25:23.825Z,2.54
2019-04-10T05:26:21.339Z,2.54
2019-04-10T05:27:21.219Z,2.57
2019-04-10T05:28:22.723Z,2.55
2019-04-10T05:29:22.025Z,2.58
2019-04-10T05:30:21.880Z,2.60
2019-04-10T05:31:21.493Z,2.72
2019-04-10T05:32:21.545Z,2.61
2019-04-10T05:33:21.119Z,2.61
2019-04-10T05:34:21.982Z,2.72
2019-04-10T05:35:21.113Z,2.68
2019-04-10T05:36:21.619Z,2.66
2019-04-10T05:37:21.321Z,2.71
2019-04-10T05:38:21.079Z,2.69
2019-04-10T05:39:21.078Z,2.69
2019-04-10T05:40:21.113Z,2.68
2019-04-10T05:41:21.675Z,2.71
2019-04-10T05:42:21.079Z,2.69
2019-04-10T05:43:21.983Z,2.72
2019-04-10T05:44:20.993Z,2.76
2019-04-10T05:45:21.266Z,2.72
2019-04-10T05:46:21.643Z,2.71
2019-04-10T05:47:21.451Z,2.79
2019-04-10T05:48:23.263Z,2.87
2019-04-10T05:49:20.954Z,2.82
2019-04-10T05:50:21.530Z,2.86
2019-04-10T05:51:21.295Z,2.82
2019-04-10T05:52:20.915Z,2.84
2019-04-10T05:53:20.970Z,2.94
2019-04-10T05:54:20.926Z,2.96
2019-04-10T05:55:20.906Z,2.97
2019-04-10T05:56:20.860Z,2.99
2019-04-10T05:57:20.869Z,3.00
2019-04-10T05:58:21.748Z,3.02
2019-04-10T05:59:21.807Z,2.97
2019-04-10T06:00:20.926Z,2.91
2019-04-10T06:01:30.465Z,2.96
2019-04-10T06:02:22.972Z,3.04
2019-04-10T06:03:20.829Z,3.04
2019-04-10T06:04:21.097Z,2.94
2019-04-10T06:05:20.773Z,3.14
2019-04-10T06:06:20.775Z,2.97
2019-04-10T06:07:21.123Z,3.05
2019-04-10T06:08:21.596Z,3.00
2019-04-10T06:09:20.784Z,2.93
2019-04-10T06:10:21.664Z,2.99
2019-04-10T06:11:20.686Z,3.04
2019-04-10T06:12:20.715Z,3.05
2019-04-10T06:13:20.681Z,3.04
2019-04-10T06:14:20.706Z,3.08
2019-04-10T06:15:21.117Z,3.07
2019-04-10T06:16:20.665Z,3.14
2019-04-10T06:17:20.742Z,3.15
2019-04-10T06:18:20.834Z,3.12
2019-04-10T06:19:20.612Z,3.09
2019-04-10T06:20:20.891Z,3.22
2019-04-10T06:21:21.082Z,3.23
2019-04-10T06:22:20.862Z,3.23
2019-04-10T06:23:20.604Z,3.27
2019-04-10T06:24:20.543Z,3.37
2019-04-10T06:25:23.558Z,3.35
2019-04-10T06:26:21.840Z,3.30
2019-04-10T06:27:20.612Z,3.33
2019-04-10T06:28:21.354Z,3.42
2019-04-10T06:29:21.128Z,3.37
2019-04-10T06:30:20.598Z,3.42
2019-04-10T06:31:20.798Z,3.33
2019-04-10T06:32:21.286Z,3.36
2019-04-10T06:33:20.499Z,3.45
2019-04-10T06:34:20.604Z,3.37
2019-04-10T06:35:20.442Z,3.36
2019-04-10T06:36:21.484Z,3.42
2019-04-10T06:37:20.422Z,3.44
2019-04-10T06:38:21.006Z,3.49
2019-04-10T06:39:20.566Z,3.52
2019-04-10T06:40:23.862Z,3.55
2019-04-10T06:41:22.264Z,3.54
2019-04-10T06:42:20.475Z,3.66
2019-04-10T06:43:21.162Z,3.67
2019-04-10T06:44:20.345Z,3.73
2019-04-10T06:45:20.358Z,3.78
2019-04-10T06:46:20.315Z,3.72
2019-04-10T06:47:20.372Z,3.81
2019-04-10T06:48:20.328Z,3.82
2019-04-10T06:49:20.661Z,3.85
2019-04-10T06:50:21.072Z,3.82
2019-04-10T06:51:21.605Z,3.80
2019-04-10T06:52:20.696Z,3.80
2019-04-10T06:53:20.567Z,3.92
2019-04-10T06:54:20.572Z,3.90
2019-04-10T06:55:20.222Z,3.92
2019-04-10T06:56:20.862Z,3.99
2019-04-10T06:57:20.817Z,3.92
2019-04-10T06:58:20.214Z,4.02
2019-04-10T06:59:21.228Z,4.09
2019-04-10T07:00:21.408Z,4.06
2019-04-10T07:01:21.537Z,4.10
2019-04-10T07:02:27.339Z,4.24
2019-04-10T07:03:21.187Z,4.28
2019-04-10T07:04:24.201Z,4.20
2019-04-10T07:05:20.156Z,4.17
2019-04-10T07:06:22.267Z,4.36
2019-04-10T07:07:23.458Z,4.31
2019-04-10T07:08:23.674Z,4.42
2019-04-10T07:09:21.391Z,4.42
2019-04-10T07:10:27.242Z,4.38
2019-04-10T07:11:23.411Z,4.46
2019-04-10T07:12:21.433Z,4.48
2019-04-10T07:13:20.038Z,4.48
2019-04-10T07:14:20.458Z,4.51
2019-04-10T07:15:23.534Z,4.54
2019-04-10T07:16:20.128Z,4.49
2019-04-10T07:17:20.012Z,4.49
2019-04-10T07:18:20.646Z,4.63
2019-04-10T07:19:19.988Z,4.61
2019-04-10T07:20:21.390Z,4.61
2019-04-10T07:21:20.144Z,4.72
2019-04-10T07:22:20.732Z,4.71
2019-04-10T07:23:25.856Z,4.67
2019-04-10T07:24:20.940Z,4.74
2019-04-10T07:25:19.900Z,4.77
2019-04-10T07:26:33.270Z,4.71
2019-04-10T07:27:21.862Z,4.85
2019-04-10T07:28:19.874Z,4.86
2019-04-10T07:29:24.738Z,4.89
2019-04-10T07:30:24.088Z,4.82
2019-04-10T07:31:21.366Z,4.93
2019-04-10T07:32:19.816Z,4.83
2019-04-10T07:33:21.037Z,4.88
2019-04-10T07:34:23.862Z,4.89
2019-04-10T07:35:21.866Z,4.93
2019-04-10T07:36:20.330Z,4.94
2019-04-10T07:37:21.658Z,4.86
2019-04-10T07:38:21.208Z,4.96
2019-04-10T07:39:19.738Z,4.91
2019-04-10T07:40:20.642Z,5.04
2019-04-10T07:41:21.451Z,5.12
2019-04-10T07:42:30.390Z,5.15
2019-04-10T07:43:25.453Z,5.07
2019-04-10T07:44:20.697Z,5.18
2019-04-10T07:45:19.701Z,5.22
2019-04-10T07:46:19.700Z,5.34
2019-04-10T07:47:21.169Z,5.34
2019-04-10T07:48:20.525Z,5.34
2019-04-10T07:49:20.811Z,5.43
2019-04-10T07:50:20.567Z,5.48
2019-04-10T07:51:19.615Z,5.41
2019-04-10T07:52:21.065Z,5.50
2019-04-10T07:53:19.627Z,5.43
2019-04-10T07:54:21.239Z,5.39
2019-04-10T07:55:19.577Z,5.51
2019-04-10T07:56:20.954Z,5.52
2019-04-10T07:57:20.301Z,5.58
2019-04-10T07:58:19.584Z,5.50
2019-04-10T07:59:20.382Z,5.61
2019-04-10T08:00:20.113Z,5.61
2019-04-10T08:01:19.500Z,5.69
2019-04-10T08:02:19.524Z,5.69
2019-04-10T08:03:19.485Z,5.76
2019-04-10T08:04:20.506Z,5.72
2019-04-10T08:05:19.459Z,5.76
2019-04-10T08:06:19.919Z,5.79
2019-04-10T08:07:28.569Z,5.80
2019-04-10T08:08:21.359Z,5.80
2019-04-10T08:09:19.455Z,5.93
2019-04-10T08:10:20.014Z,5.93
2019-04-10T08:11:19.751Z,5.90
2019-04-10T08:12:19.411Z,5.91
2019-04-10T08:13:20.349Z,6.00
2019-04-10T08:14:19.620Z,6.05
2019-04-10T08:15:19.349Z,6.00
2019-04-10T08:16:19.361Z,6.08
2019-04-10T08:17:19.694Z,6.00
2019-04-10T08:18:19.299Z,6.09
2019-04-10T08:19:19.310Z,6.12
2019-04-10T08:20:19.303Z,6.12
2019-04-10T08:21:19.771Z,6.16
2019-04-10T08:22:20.228Z,6.13
2019-04-10T08:23:19.752Z,6.13
2019-04-10T08:24:20.290Z,6.19
2019-04-10T08:25:19.522Z,6.31
2019-04-10T08:26:19.210Z,6.32
2019-04-10T08:27:19.363Z,6.35
2019-04-10T08:28:19.843Z,6.30
2019-04-10T08:29:19.260Z,6.35
2019-04-10T08:30:19.576Z,6.30
2019-04-10T08:31:19.189Z,6.30
2019-04-10T08:32:19.184Z,6.35
2019-04-10T08:33:19.574Z,6.46
2019-04-10T08:34:19.488Z,6.40
2019-04-10T08:35:19.164Z,6.40
2019-04-10T08:36:19.340Z,6.53
2019-04-10T08:37:19.156Z,6.53
2019-04-10T08:38:19.104Z,6.53
2019-04-10T08:39:32.065Z,6.56
2019-04-10T08:40:21.063Z,6.57
2019-04-10T08:41:19.268Z,6.60
2019-04-10T08:42:19.141Z,6.52
2019-04-10T08:43:20.126Z,6.61
2019-04-10T08:44:19.953Z,6.65
2019-04-10T08:45:19.046Z,6.61
2019-04-10T08:46:19.824Z,6.65
2019-04-10T08:47:19.362Z,6.67
2019-04-10T08:48:19.009Z,6.61
2019-04-10T08:49:18.968Z,6.65
2019-04-10T08:50:19.711Z,6.70
2019-04-10T08:51:19.240Z,6.74
2019-04-10T08:52:19.926Z,6.70
2019-04-10T08:53:20.065Z,6.82
2019-04-10T08:54:18.900Z,6.78
2019-04-10T08:55:18.924Z,6.82
2019-04-10T08:56:18.937Z,6.93
2019-04-10T08:57:19.323Z,6.91
2019-04-10T08:58:18.895Z,6.92
2019-04-10T08:59:19.317Z,6.92
2019-04-10T09:00:18.844Z,6.93
2019-04-10T09:01:18.925Z,6.97
2019-04-10T09:02:20.035Z,6.96
2019-04-10T09:03:19.025Z,6.93
2019-04-10T09:04:18.829Z,7.03
2019-04-10T09:05:19.609Z,6.99
2019-04-10T09:06:19.517Z,6.91
2019-04-10T09:07:19.774Z,6.96
2019-04-10T09:08:18.998Z,6.99
2019-04-10T09:09:18.809Z,7.08
2019-04-10T09:10:18.751Z,7.16
2019-04-10T09:11:26.189Z,7.16
2019-04-10T09:12:19.886Z,7.31
2019-04-10T09:13:18.729Z,7.40
2019-04-10T09:14:19.102Z,7.47
2019-04-10T09:15:18.695Z,7.42
2019-04-10T09:16:18.704Z,7.43
2019-04-10T09:17:19.410Z,7.54
2019-04-10T09:18:18.863Z,7.46
2019-04-10T09:19:19.014Z,7.57
2019-04-10T09:20:18.720Z,7.37
2019-04-10T09:21:19.452Z,7.50
2019-04-10T09:22:18.639Z,7.52
2019-04-10T09:23:27.742Z,7.40
2019-04-10T09:24:19.688Z,7.42
2019-04-10T09:25:19.706Z,7.50
2019-04-10T09:26:18.574Z,7.58
2019-04-10T09:27:19.216Z,7.73
2019-04-10T09:28:18.587Z,7.62
2019-04-10T09:29:18.549Z,7.66
2019-04-10T09:30:18.540Z,7.68
2019-04-10T09:31:19.710Z,7.66
2019-04-10T09:32:18.540Z,7.74
2019-04-10T09:33:24.247Z,7.74
2019-04-10T09:34:19.977Z,7.73
2019-04-10T09:35:19.094Z,7.81
2019-04-10T09:36:19.732Z,7.83
2019-04-10T09:37:18.449Z,7.88
2019-04-10T09:38:18.828Z,7.88
2019-04-10T09:39:19.175Z,7.80
2019-04-10T09:40:18.433Z,7.83
2019-04-10T09:41:19.291Z,7.91
2019-04-10T09:42:19.393Z,7.83
2019-04-10T09:43:18.406Z,7.88
2019-04-10T09:44:18.693Z,7.86
2019-04-10T09:45:18.370Z,7.94
2019-04-10T09:46:18.352Z,7.99
2019-04-10T09:47:18.456Z,7.95
2019-04-10T09:48:18.662Z,8.12
2019-04-10T09:49:30.426Z,8.12
2019-04-10T09:50:19.402Z,8.10
2019-04-10T09:51:19.569Z,8.04
2019-04-10T09:52:18.699Z,8.16
2019-04-10T09:53:19.089Z,8.19
2019-04-10T09:54:18.332Z,8.16
2019-04-10T09:55:18.259Z,8.09
2019-04-10T09:56:19.256Z,8.10
2019-04-10T09:57:18.218Z,8.12
2019-04-10T09:58:18.254Z,8.10
2019-04-10T09:59:18.210Z,7.99
2019-04-10T10:00:19.174Z,8.10
2019-04-10T10:01:18.190Z,8.13
2019-04-10T10:02:18.211Z,8.20
2019-04-10T10:03:19.390Z,8.20
2019-04-10T10:04:18.162Z,8.19
2019-04-10T10:05:18.235Z,8.28
2019-04-10T10:06:27.345Z,8.23
2019-04-10T10:07:19.135Z,8.31
2019-04-10T10:08:18.401Z,8.28
2019-04-10T10:09:18.116Z,8.38
2019-04-10T10:10:18.094Z,8.42
2019-04-10T10:11:18.163Z,8.41
2019-04-10T10:12:18.098Z,8.42
2019-04-10T10:13:18.309Z,8.38
2019-04-10T10:14:18.841Z,8.46
2019-04-10T10:15:18.982Z,8.44
2019-04-10T10:16:18.949Z,8.46
2019-04-10T10:17:18.021Z,8.44
2019-04-10T10:18:18.044Z,8.47
2019-04-10T10:19:18.272Z,8.47
2019-04-10T10:20:17.970Z,8.52
2019-04-10T10:21:18.703Z,8.55
2019-04-10T10:22:17.972Z,8.50
2019-04-10T10:23:18.045Z,8.49
2019-04-10T10:24:18.284Z,8.56
2019-04-10T10:25:17.928Z,8.57
2019-04-10T10:26:17.942Z,8.59
2019-04-10T10:27:17.905Z,8.59
2019-04-10T10:28:18.744Z,8.68
2019-04-10T10:29:17.873Z,8.71
2019-04-10T10:30:17.858Z,8.60
2019-04-10T10:31:17.953Z,8.57
2019-04-10T10:32:17.838Z,8.59
2019-04-10T10:33:17.839Z,8.59
2019-04-10T10:34:18.563Z,8.57
2019-04-10T10:35:18.840Z,8.75
2019-04-10T10:36:17.866Z,8.65
2019-04-10T10:37:18.675Z,8.70
2019-04-10T10:38:18.958Z,8.77
2019-04-10T10:39:18.869Z,8.80
2019-04-10T10:40:17.779Z,8.86
2019-04-10T10:41:18.110Z,8.83
2019-04-10T10:42:17.729Z,8.89
2019-04-10T10:43:18.372Z,8.95
2019-04-10T10:44:17.756Z,8.90
2019-04-10T10:45:18.638Z,8.93
2019-04-10T10:46:17.691Z,8.99
2019-04-10T10:47:17.692Z,9.04
2019-04-10T10:48:17.769Z,9.11
2019-04-10T10:49:18.046Z,8.99
2019-04-10T10:50:17.642Z,8.99
2019-04-10T10:51:18.359Z,8.99
2019-04-10T10:52:17.644Z,9.04
2019-04-10T10:53:17.643Z,9.09
2019-04-10T10:54:18.866Z,8.95
2019-04-10T10:55:17.875Z,9.01
2019-04-10T10:56:18.230Z,9.08
2019-04-10T10:57:17.568Z,9.03
2019-04-10T10:58:17.587Z,9.08
2019-04-10T10:59:17.627Z,9.11
2019-04-10T11:00:18.654Z,8.96
2019-04-10T11:01:17.999Z,9.15
2019-04-10T11:02:17.565Z,9.12
2019-04-10T11:03:18.185Z,9.22
2019-04-10T11:04:17.511Z,9.22
2019-04-10T11:05:17.500Z,9.18
2019-04-10T11:06:17.850Z,9.22
2019-04-10T11:07:18.694Z,9.19
2019-04-10T11:08:17.708Z,9.24
2019-04-10T11:09:18.210Z,9.27
2019-04-10T11:10:22.066Z,9.36
2019-04-10T11:11:18.445Z,9.32
2019-04-10T11:12:17.727Z,9.36
2019-04-10T11:13:17.423Z,9.30
2019-04-10T11:14:17.376Z,9.32
2019-04-10T11:15:18.371Z,9.30
2019-04-10T11:16:17.874Z,9.37
2019-04-10T11:17:17.599Z,9.45
2019-04-10T11:18:18.083Z,9.44
2019-04-10T11:19:17.347Z,9.42
2019-04-10T11:20:17.820Z,9.50
2019-04-10T11:21:18.229Z,9.51
2019-04-10T11:22:22.522Z,9.54
2019-04-10T11:23:18.359Z,9.60
2019-04-10T11:24:17.341Z,9.57
2019-04-10T11:25:17.253Z,9.47
2019-04-10T11:26:20.562Z,9.50
2019-04-10T11:27:18.224Z,9.47
2019-04-10T11:28:18.698Z,9.41
2019-04-10T11:29:17.548Z,9.48
2019-04-10T11:30:18.303Z,9.52
2019-04-10T11:31:17.437Z,9.63
2019-04-10T11:32:17.633Z,9.67
2019-04-10T11:33:17.863Z,9.67
2019-04-10T11:34:18.111Z,9.69
2019-04-10T11:35:17.516Z,9.73
2019-04-10T11:36:17.563Z,9.80
2019-04-10T11:38:19.211Z,9.83
2019-04-10T11:39:23.361Z,9.83
2019-04-10T11:40:18.193Z,9.73
2019-04-10T11:41:18.078Z,9.75
2019-04-10T11:42:18.425Z,9.73
2019-04-10T11:43:17.118Z,9.88
2019-04-10T11:45:19.053Z,9.94
2019-04-10T11:46:17.037Z,9.96
2019-04-10T11:47:17.447Z,9.96
2019-04-10T11:48:18.663Z,10.01
2019-04-10T11:49:19.414Z,10.01
2019-04-10T11:50:18.556Z,10.02
2019-04-10T11:51:18.450Z,9.93
2019-04-10T11:52:19.029Z,9.91
2019-04-10T11:53:17.761Z,9.80
2019-04-10T11:54:18.154Z,9.83
2019-04-10T11:55:20.320Z,9.91
2019-04-10T11:56:19.270Z,9.77
2019-04-10T11:57:19.827Z,9.80
2019-04-10T11:58:17.915Z,9.88
2019-04-10T11:59:21.198Z,9.91
2019-04-10T12:00:19.868Z,9.84
2019-04-10T12:01:17.738Z,9.88
2019-04-10T12:02:20.769Z,9.94
2019-04-10T12:03:18.338Z,9.88
2019-04-10T12:04:19.693Z,9.87
2019-04-10T12:05:19.924Z,9.88
2019-04-10T12:06:18.345Z,9.94
2019-04-10T12:07:52.919Z,10.01
2019-04-10T12:08:41.694Z,10.02
2019-04-10T12:09:57.210Z,9.98
2019-04-10T12:11:19.957Z,10.01
2019-04-10T12:12:17.396Z,9.98
2019-04-10T12:13:17.970Z,9.94
2019-04-10T12:14:16.710Z,9.87
2019-04-10T12:15:17.254Z,9.77
2019-04-10T12:16:16.845Z,9.88
2019-04-10T12:17:16.674Z,9.88
2019-04-10T12:18:16.652Z,9.94
2019-04-10T12:19:17.367Z,9.93
2019-04-10T12:20:16.771Z,9.91
2019-04-10T12:21:17.684Z,9.94
2019-04-10T12:22:16.646Z,9.90
2019-04-10T12:23:16.796Z,10.01
2019-04-10T12:24:16.658Z,10.06
2019-04-10T12:25:16.655Z,10.14
2019-04-10T12:26:16.579Z,10.17
2019-04-10T12:27:16.733Z,10.14
2019-04-10T12:28:16.578Z,10.03
2019-04-10T12:29:16.591Z,10.05
2019-04-10T12:30:17.399Z,10.09
2019-04-10T12:31:17.623Z,10.08
2019-04-10T12:32:16.687Z,10.17
2019-04-10T12:33:17.120Z,10.17
2019-04-10T12:34:16.498Z,10.20
2019-04-10T12:35:17.208Z,10.03
2019-04-10T12:36:16.515Z,10.06
2019-04-10T12:37:17.501Z,9.98
2019-04-10T12:38:17.109Z,9.94
2019-04-10T12:39:16.438Z,9.81
2019-04-10T12:40:17.312Z,9.80
2019-04-10T12:41:17.311Z,9.85
2019-04-10T12:42:16.489Z,9.88
2019-04-10T12:43:16.746Z,10.01
2019-04-10T12:44:16.426Z,10.02
2019-04-10T12:45:16.399Z,9.99
2019-04-10T12:46:17.764Z,10.06
2019-04-10T12:47:17.350Z,10.08
2019-04-10T12:48:16.698Z,10.12
2019-04-10T12:49:17.094Z,10.21
2019-04-10T12:50:16.305Z,10.18
2019-04-10T12:51:17.399Z,10.16
2019-04-10T12:52:16.460Z,10.23
2019-04-10T12:53:16.274Z,10.12
2019-04-10T12:54:17.186Z,10.26
2019-04-10T12:55:16.514Z,10.23
2019-04-10T12:56:16.236Z,10.30
2019-04-10T12:57:17.005Z,10.36
2019-04-10T12:58:18.048Z,10.42
2019-04-10T12:59:17.291Z,10.45
2019-04-10T13:00:16.176Z,10.42
2019-04-10T13:01:16.360Z,10.42
2019-04-10T13:02:16.447Z,10.42
2019-04-10T13:03:16.750Z,10.34
2019-04-10T13:04:16.218Z,10.41
2019-04-10T13:05:16.717Z,10.36
2019-04-10T13:06:16.139Z,10.27
2019-04-10T13:07:16.123Z,10.26
2019-04-10T13:08:21.729Z,10.42
2019-04-10T13:09:17.941Z,10.43
2019-04-10T13:10:16.084Z,10.46
2019-04-10T13:11:16.267Z,10.52
2019-04-10T13:12:16.089Z,10.48
2019-04-10T13:13:16.059Z,10.73
2019-04-10T13:14:16.862Z,10.76
2019-04-10T13:15:16.052Z,10.76
2019-04-10T13:16:16.187Z,10.76
2019-04-10T13:17:16.530Z,10.78
2019-04-10T13:18:16.312Z,10.67
2019-04-10T13:19:16.608Z,10.75
2019-04-10T13:20:16.086Z,10.67